createdAt,value
2023-04-15T00:00:10.585Z,100045.16
2023-04-15T00:00:48.438Z,100045.16
2023-04-15T00:01:21.068Z,100042.47
2023-04-15T00:01:53.347Z,100042.22
2023-04-15T00:02:28.397Z,100048.94
2023-04-15T00:03:02.505Z,100044.66
2023-04-15T00:03:35.262Z,100040.63
2023-04-15T00:04:10.492Z,100051.13
2023-04-15T00:04:42.790Z,100044.13
2023-04-15T00:05:14.985Z,100041.16
2023-04-15T00:05:49.825Z,100044.66
2023-04-15T00:06:22.366Z,100041.72
2023-04-15T00:06:55.039Z,100045.22
2023-04-15T00:07:29.841Z,100048.16
2023-04-15T00:08:02.118Z,100044.94
2023-04-15T00:08:36.984Z,100043.56
2023-04-15T00:09:11.836Z,100046.25
2023-04-15T00:09:44.892Z,100039.28
2023-04-15T00:10:17.102Z,100042.75
2023-04-15T00:10:51.898Z,100042.50
2023-04-15T00:11:24.608Z,100040.88
2023-04-15T00:11:56.773Z,100035.50
2023-04-15T00:12:31.916Z,100034.44
2023-04-15T00:13:04.601Z,100037.94
2023-04-15T00:13:36.872Z,100038.75
2023-04-15T00:14:11.652Z,100036.59
2023-04-15T00:14:43.846Z,100044.38
2023-04-15T00:15:16.617Z,100039.53
2023-04-15T00:15:51.497Z,100038.47
2023-04-15T00:16:23.759Z,100037.66
2023-04-15T00:16:57.641Z,100045.44
2023-04-15T00:17:32.620Z,100041.41
2023-04-15T00:18:04.798Z,100045.16
2023-04-15T00:18:40.331Z,100048.13
2023-04-15T00:19:12.538Z,100047.56
2023-04-15T00:19:46.021Z,100046.22
2023-04-15T00:20:21.129Z,100048.63
2023-04-15T00:20:53.703Z,100043.78
2023-04-15T00:21:27.226Z,100043.78
2023-04-15T00:22:02.444Z,100041.34
2023-04-15T00:22:34.658Z,100028.72
2023-04-15T00:23:06.826Z,100030.34
2023-04-15T00:23:44.403Z,100031.16
2023-04-15T00:24:16.662Z,100030.59
2023-04-15T00:24:48.823Z,100026.03
2023-04-15T00:25:23.637Z,100028.47
2023-04-15T00:25:55.877Z,100032.22
2023-04-15T00:26:28.120Z,100030.59
2023-04-15T00:27:04.513Z,100031.38
2023-04-15T00:27:37.522Z,100029.50
2023-04-15T00:28:10.160Z,100033.25
2023-04-15T00:28:44.988Z,100039.72
2023-04-15T00:29:17.268Z,100036.22
2023-04-15T00:29:49.538Z,100038.63
2023-04-15T00:30:24.490Z,100037.81
2023-04-15T00:30:56.918Z,100033.53
2023-04-15T00:31:29.854Z,100037.56
2023-04-15T00:32:04.658Z,100039.16
2023-04-15T00:32:36.899Z,100035.34
2023-04-15T00:33:11.847Z,100037.47
2023-04-15T00:33:44.947Z,100032.38
2023-04-15T00:34:17.259Z,100032.38
2023-04-15T00:34:52.724Z,100036.94
2023-04-15T00:35:25.011Z,100035.06
2023-04-15T00:35:57.294Z,100032.38
2023-04-15T00:36:34.059Z,100037.75
2023-04-15T00:37:06.231Z,100028.84
2023-04-15T00:37:38.604Z,100029.34
2023-04-15T00:38:13.386Z,100037.97
2023-04-15T00:38:49.911Z,100029.91
2023-04-15T00:39:23.343Z,100039.59
2023-04-15T00:39:58.223Z,100036.88
2023-04-15T00:40:30.539Z,100039.00
2023-04-15T00:41:03.994Z,100035.78
2023-04-15T00:41:39.377Z,100041.16
2023-04-15T00:42:14.282Z,100043.03
2023-04-15T00:42:46.513Z,100041.16
2023-04-15T00:43:19.127Z,100038.47
2023-04-15T00:43:54.464Z,100040.91
2023-04-15T00:44:26.958Z,100043.34
2023-04-15T00:44:59.501Z,100030.94
2023-04-15T00:45:34.453Z,100035.31
2023-04-15T00:46:07.742Z,100029.41
2023-04-15T00:46:40.768Z,100029.66
2023-04-15T00:47:15.901Z,100036.31
2023-04-15T00:47:48.246Z,100035.22
2023-04-15T00:48:20.933Z,100027.44
2023-04-15T00:48:57.770Z,100029.84
2023-04-15T00:49:30.187Z,100028.25
2023-04-15T00:50:02.376Z,100035.78
2023-04-15T00:50:37.274Z,100034.72
2023-04-15T00:51:09.914Z,100027.50
2023-04-15T00:51:42.401Z,100028.03
2023-04-15T00:52:17.636Z,100029.91
2023-04-15T00:52:49.862Z,100034.22
2023-04-15T00:53:22.201Z,100036.66
2023-04-15T00:54:00.173Z,100032.09
2023-04-15T00:54:32.379Z,100035.03
2023-04-15T00:55:05.673Z,100034.22
2023-04-15T00:55:41.079Z,100033.97
2023-04-15T00:56:14.118Z,100036.66
2023-04-15T00:56:46.449Z,100030.47
2023-04-15T00:57:21.910Z,100038.81
2023-04-15T00:57:54.983Z,100034.25
2023-04-15T00:58:28.323Z,100032.63
2023-04-15T00:59:04.517Z,100031.56
2023-04-15T00:59:37.217Z,100035.31
2023-04-15T01:00:12.138Z,100034.78
2023-04-15T01:00:47.370Z,100032.09
2023-04-15T01:01:22.060Z,100020.56
2023-04-15T01:01:54.475Z,100029.41
2023-04-15T01:02:29.562Z,100026.72
2023-04-15T01:03:02.179Z,100030.22
2023-04-15T01:03:34.785Z,100025.66
2023-04-15T01:04:11.018Z,100018.41
2023-04-15T01:04:43.769Z,100028.91
2023-04-15T01:05:18.778Z,100028.63
2023-04-15T01:05:58.780Z,100032.66
2023-04-15T01:06:32.555Z,100036.41
2023-04-15T01:07:04.751Z,100035.88
2023-04-15T01:07:39.689Z,100030.72
2023-04-15T01:08:12.609Z,100037.13
2023-04-15T01:08:45.724Z,100033.09
2023-04-15T01:09:23.126Z,100032.28
2023-04-15T01:09:57.082Z,100030.94
2023-04-15T01:10:29.441Z,100031.19
2023-04-15T01:11:05.951Z,100033.63
2023-04-15T01:11:38.290Z,100029.84
2023-04-15T01:12:14.330Z,100030.41
2023-04-15T01:12:49.197Z,100035.22
2023-04-15T01:13:22.049Z,100032.50
2023-04-15T01:13:56.348Z,100026.59
2023-04-15T01:14:32.179Z,100024.72
2023-04-15T01:15:05.999Z,100039.22
2023-04-15T01:15:39.268Z,100034.66
2023-04-15T01:16:14.828Z,100033.03
2023-04-15T01:16:48.409Z,100038.41
2023-04-15T01:17:21.009Z,100034.41
2023-04-15T01:17:55.933Z,100034.13
2023-04-15T01:18:28.302Z,100034.13
2023-04-15T01:19:01.509Z,100030.38
2023-04-15T01:19:36.984Z,100029.31
2023-04-15T01:20:10.822Z,100030.13
2023-04-15T01:20:43.469Z,100036.84
2023-04-15T01:21:18.453Z,100033.66
2023-04-15T01:21:52.851Z,100030.94
2023-04-15T01:22:26.908Z,100032.56
2023-04-15T01:23:01.816Z,100038.22
2023-04-15T01:23:37.200Z,100034.72
2023-04-15T01:24:11.402Z,100037.41
2023-04-15T01:24:55.542Z,100037.41
2023-04-15T01:25:33.232Z,100036.59
2023-04-15T01:26:07.267Z,100035.78
2023-04-15T01:26:44.464Z,100040.91
2023-04-15T01:27:16.915Z,100042.22
2023-04-15T01:27:49.253Z,100040.59
2023-04-15T01:28:21.536Z,100038.72
2023-04-15T01:28:56.544Z,100044.66
2023-04-15T01:29:29.901Z,100037.66
2023-04-15T01:30:03.437Z,100037.91
2023-04-15T01:30:40.083Z,100048.41
2023-04-15T01:31:13.974Z,100045.47
2023-04-15T01:31:51.280Z,100045.47
2023-04-15T01:32:26.377Z,100045.72
2023-04-15T01:32:58.746Z,100046.53
2023-04-15T01:33:30.929Z,100043.03
2023-04-15T01:34:05.692Z,100045.47
2023-04-15T01:34:37.862Z,100039.81
2023-04-15T01:35:10.793Z,100034.22
2023-04-15T01:35:46.607Z,100044.97
2023-04-15T01:36:18.804Z,100039.59
2023-04-15T01:36:51.381Z,100043.34
2023-04-15T01:37:26.271Z,100048.22
2023-04-15T01:38:05.318Z,100040.41
2023-04-15T01:38:38.319Z,100042.25
2023-04-15T01:39:13.661Z,100039.34
2023-04-15T01:39:46.531Z,100035.56
2023-04-15T01:40:18.919Z,100043.91
2023-04-15T01:40:54.154Z,100038.53
2023-04-15T01:41:29.785Z,100040.41
2023-04-15T01:42:02.037Z,100036.31
2023-04-15T01:42:35.421Z,100033.09
2023-04-15T01:43:10.174Z,100040.09
2023-04-15T01:43:42.647Z,100029.84
2023-04-15T01:44:15.138Z,100034.41
2023-04-15T01:44:49.909Z,100032.00
2023-04-15T01:45:22.125Z,100034.13
2023-04-15T01:45:54.402Z,100033.31
2023-04-15T01:46:29.468Z,100035.47
2023-04-15T01:47:01.942Z,100034.09
2023-04-15T01:47:34.328Z,100036.78
2023-04-15T01:48:10.080Z,100037.06
2023-04-15T01:48:43.342Z,100037.56
2023-04-15T01:49:15.629Z,100039.44
2023-04-15T01:49:50.436Z,100040.22
2023-04-15T01:50:22.640Z,100041.03
2023-04-15T01:50:57.731Z,100049.69
2023-04-15T01:51:32.484Z,100052.34
2023-04-15T01:52:04.915Z,100048.03
2023-04-15T01:52:37.751Z,100052.34
2023-04-15T01:53:09.986Z,100040.56
2023-04-15T01:53:44.742Z,100052.41
2023-04-15T01:54:16.996Z,100053.47
2023-04-15T01:54:50.043Z,100057.22
2023-04-15T01:55:27.264Z,100052.09
2023-04-15T01:56:02.505Z,100055.03
2023-04-15T01:56:34.929Z,100056.91
2023-04-15T01:57:11.441Z,100055.03
2023-04-15T01:57:43.659Z,100052.09
2023-04-15T01:58:15.958Z,100055.59
2023-04-15T01:58:50.761Z,100068.78
2023-04-15T01:59:23.172Z,100054.00
2023-04-15T01:59:55.402Z,100055.03
2023-04-15T02:00:30.180Z,100055.03
2023-04-15T02:01:03.193Z,100060.41
2023-04-15T02:01:37.344Z,100064.97
2023-04-15T02:02:12.787Z,100067.72
2023-04-15T02:02:45.170Z,100060.41
2023-04-15T02:03:18.313Z,100062.06
2023-04-15T02:03:53.340Z,100063.09
2023-04-15T02:04:25.682Z,100066.03
2023-04-15T02:04:58.256Z,100052.88
2023-04-15T02:05:33.043Z,100060.94
2023-04-15T02:06:06.351Z,100058.25
2023-04-15T02:06:38.603Z,100065.50
2023-04-15T02:07:13.403Z,100068.44
2023-04-15T02:07:46.811Z,100061.44
2023-04-15T02:08:18.981Z,100061.97
2023-04-15T02:08:53.776Z,100068.97
2023-04-15T02:09:26.299Z,100060.34
2023-04-15T02:09:58.686Z,100065.72
2023-04-15T02:10:33.640Z,100065.72
2023-04-15T02:11:08.779Z,100058.72
2023-04-15T02:11:41.089Z,100069.97
2023-04-15T02:12:16.808Z,100069.97
2023-04-15T02:12:49.301Z,100064.03
2023-04-15T02:13:21.506Z,100066.72
2023-04-15T02:13:57.264Z,100074.00
2023-04-15T02:14:31.880Z,100070.50
2023-04-15T02:15:05.557Z,100074.00
2023-04-15T02:15:40.544Z,100077.47
2023-04-15T02:16:19.228Z,100074.25
2023-04-15T02:16:51.746Z,100083.34
2023-04-15T02:17:26.942Z,100073.66
2023-04-15T02:18:01.130Z,100076.09
2023-04-15T02:18:35.941Z,100073.44
2023-04-15T02:19:08.190Z,100085.78
2023-04-15T02:19:43.221Z,100083.94
2023-04-15T02:20:15.573Z,100076.69
2023-04-15T02:20:50.900Z,100079.09
2023-04-15T02:21:23.138Z,100083.41
2023-04-15T02:21:55.348Z,100070.78
2023-04-15T02:22:30.542Z,100075.34
2023-04-15T02:23:03.311Z,100088.53
2023-04-15T02:23:35.747Z,100074.00
2023-04-15T02:24:12.351Z,100085.03
2023-04-15T02:24:46.835Z,100073.22
2023-04-15T02:25:20.434Z,100079.38
2023-04-15T02:25:55.202Z,100081.81
2023-04-15T02:26:32.801Z,100079.94
2023-04-15T02:27:04.958Z,100080.47
2023-04-15T02:27:39.879Z,100077.78
2023-04-15T02:28:12.135Z,100079.91
2023-04-15T02:28:44.653Z,100075.59
2023-04-15T02:29:23.157Z,100084.75
2023-04-15T02:29:55.583Z,100085.56
2023-04-15T02:30:27.992Z,100092.03
2023-04-15T02:31:02.776Z,100083.41
2023-04-15T02:31:40.626Z,100086.91
2023-04-15T02:32:13.396Z,100082.59
2023-04-15T02:32:48.674Z,100085.28
2023-04-15T02:33:22.139Z,100088.22
2023-04-15T02:33:54.332Z,100090.88
2023-04-15T02:34:29.544Z,100090.88
2023-04-15T02:35:04.070Z,100094.38
2023-04-15T02:35:39.478Z,100098.69
2023-04-15T02:36:14.750Z,100094.38
2023-04-15T02:36:47.708Z,100088.22
2023-04-15T02:37:21.203Z,100091.72
2023-04-15T02:37:56.122Z,100087.97
2023-04-15T02:38:28.448Z,100096.03
2023-04-15T02:39:01.186Z,100092.78
2023-04-15T02:39:37.055Z,100088.22
2023-04-15T02:40:10.717Z,100101.91
2023-04-15T02:40:45.652Z,100094.09
2023-04-15T02:41:18.905Z,100096.78
2023-04-15T02:41:53.907Z,100097.59
2023-04-15T02:42:30.554Z,100099.47
2023-04-15T02:43:07.185Z,100099.72
2023-04-15T02:43:40.213Z,100098.94
2023-04-15T02:44:17.812Z,100110.72
2023-04-15T02:44:50.153Z,100105.84
2023-04-15T02:45:26.061Z,100108.00
2023-04-15T02:46:01.286Z,100109.31
2023-04-15T02:46:33.702Z,100110.09
2023-04-15T02:47:07.322Z,100110.91
2023-04-15T02:47:43.490Z,100111.75
2023-04-15T02:48:18.196Z,100110.91
2023-04-15T02:48:51.169Z,100105.56
2023-04-15T02:49:26.070Z,100109.06
2023-04-15T02:50:00.621Z,100117.09
2023-04-15T02:50:34.392Z,100110.69
2023-04-15T02:51:16.926Z,100109.63
2023-04-15T02:51:49.960Z,100112.78
2023-04-15T02:52:22.241Z,100108.25
2023-04-15T02:52:57.055Z,100106.38
2023-04-15T02:53:29.244Z,100112.56
2023-04-15T02:54:01.751Z,100115.81
2023-04-15T02:54:36.846Z,100107.75
2023-04-15T02:55:09.974Z,100112.59
2023-04-15T02:55:43.144Z,100114.47
2023-04-15T02:56:19.572Z,100116.09
2023-04-15T02:56:56.348Z,100113.41
2023-04-15T02:57:29.184Z,100121.47
2023-04-15T02:58:06.406Z,100116.09
2023-04-15T02:58:39.635Z,100118.50
2023-04-15T02:59:12.910Z,100118.78
2023-04-15T02:59:47.689Z,100123.09
2023-04-15T03:00:20.802Z,100122.00
2023-04-15T03:00:54.111Z,100114.22
2023-04-15T03:01:29.106Z,100116.63
2023-04-15T03:02:01.589Z,100120.94
2023-04-15T03:02:34.841Z,100122.00
2023-04-15T03:03:11.047Z,100120.09
2023-04-15T03:03:43.458Z,100118.97
2023-04-15T03:04:15.926Z,100117.91
2023-04-15T03:04:48.230Z,100120.38
2023-04-15T03:05:24.747Z,100113.91
2023-04-15T03:05:57.155Z,100129.22
2023-04-15T03:06:29.819Z,100124.66
2023-04-15T03:07:04.975Z,100117.41
2023-04-15T03:07:37.409Z,100120.91
2023-04-15T03:08:09.570Z,100117.97
2023-04-15T03:08:44.634Z,100123.34
2023-04-15T03:09:18.346Z,100123.34
2023-04-15T03:09:50.723Z,100126.84
2023-04-15T03:10:26.071Z,100129.25
2023-04-15T03:11:00.924Z,100125.22
2023-04-15T03:11:34.882Z,100130.59
2023-04-15T03:12:14.075Z,100117.41
2023-04-15T03:12:46.367Z,100123.06
2023-04-15T03:13:25.598Z,100125.47
2023-04-15T03:13:59.040Z,100121.19
2023-04-15T03:14:36.535Z,100125.16
2023-04-15T03:15:13.201Z,100125.44
2023-04-15T03:15:50.077Z,100123.50
2023-04-15T03:16:22.533Z,100123.50
2023-04-15T03:16:59.525Z,100123.50
2023-04-15T03:17:31.800Z,100127.56
2023-04-15T03:18:07.281Z,100121.13
2023-04-15T03:18:39.916Z,100132.69
2023-04-15T03:19:12.835Z,100129.72
2023-04-15T03:19:49.995Z,100128.13
2023-04-15T03:20:23.652Z,100127.31
2023-04-15T03:20:56.080Z,100127.03
2023-04-15T03:21:31.628Z,100125.97
2023-04-15T03:22:03.922Z,100131.09
2023-04-15T03:22:36.262Z,100122.22
2023-04-15T03:23:11.889Z,100128.16
2023-04-15T03:23:44.488Z,100121.97
2023-04-15T03:24:17.907Z,100131.91
2023-04-15T03:24:50.811Z,100121.97
2023-04-15T03:25:25.779Z,100122.53
2023-04-15T03:25:58.599Z,100126.84
2023-04-15T03:26:32.249Z,100125.78
2023-04-15T03:27:10.224Z,100130.28
2023-04-15T03:27:45.305Z,100130.00
2023-04-15T03:28:18.837Z,100124.06
2023-04-15T03:28:51.031Z,100129.19
2023-04-15T03:29:26.654Z,100125.69
2023-04-15T03:29:58.833Z,100123.81
2023-04-15T03:30:32.517Z,100118.44
2023-04-15T03:31:08.315Z,100119.25
2023-04-15T03:31:40.720Z,100116.56
2023-04-15T03:32:13.178Z,100121.94
2023-04-15T03:32:47.993Z,100112.25
2023-04-15T03:33:20.614Z,100117.63
2023-04-15T03:33:52.848Z,100114.94
2023-04-15T03:34:27.692Z,100126.22
2023-04-15T03:34:59.971Z,100127.84
2023-04-15T03:35:32.190Z,100124.09
2023-04-15T03:36:07.497Z,100113.13
2023-04-15T03:36:42.269Z,100121.19
2023-04-15T03:37:14.512Z,100121.19
2023-04-15T03:37:47.164Z,100121.97
2023-04-15T03:38:21.987Z,100120.91
2023-04-15T03:38:54.255Z,100121.72
2023-04-15T03:39:26.421Z,100118.22
2023-04-15T03:40:01.233Z,100124.97
2023-04-15T03:40:33.464Z,100123.59
2023-04-15T03:41:06.225Z,100115.53
2023-04-15T03:41:41.247Z,100117.69
2023-04-15T03:42:13.435Z,100121.41
2023-04-15T03:42:48.310Z,100118.75
2023-04-15T03:43:23.226Z,100120.59
2023-04-15T03:43:55.392Z,100119.78
2023-04-15T03:44:27.961Z,100115.00
2023-04-15T03:45:03.703Z,100116.59
2023-04-15T03:45:35.936Z,100118.50
2023-04-15T03:46:08.216Z,100121.19
2023-04-15T03:46:43.132Z,100112.03
2023-04-15T03:47:15.394Z,100115.53
2023-04-15T03:47:50.365Z,100119.84
2023-04-15T03:48:22.784Z,100114.47
2023-04-15T03:48:55.055Z,100119.84
2023-04-15T03:49:29.825Z,100115.81
2023-04-15T03:50:01.989Z,100118.50
2023-04-15T03:50:34.165Z,100123.59
2023-04-15T03:51:09.063Z,100117.97
2023-04-15T03:51:41.475Z,100125.78
2023-04-15T03:52:13.683Z,100118.50
2023-04-15T03:52:50.089Z,100124.69
2023-04-15T03:53:23.600Z,100126.03
2023-04-15T03:53:56.265Z,100123.88
2023-04-15T03:54:31.202Z,100121.66
2023-04-15T03:55:03.510Z,100128.91
2023-04-15T03:55:35.818Z,100116.81
2023-04-15T03:56:08.359Z,100122.44
2023-04-15T03:56:43.110Z,100127.25
2023-04-15T03:57:15.424Z,100124.81
2023-04-15T03:57:50.172Z,100128.31
2023-04-15T03:58:25.010Z,100128.88
2023-04-15T03:58:57.241Z,100125.94
2023-04-15T03:59:29.426Z,100125.69
2023-04-15T04:00:04.372Z,100130.00
2023-04-15T04:00:44.081Z,100126.50
2023-04-15T04:01:16.714Z,100131.59
2023-04-15T04:01:52.254Z,100135.97
2023-04-15T04:02:24.716Z,100121.19
2023-04-15T04:02:57.449Z,100126.84
2023-04-15T04:03:32.909Z,100129.00
2023-04-15T04:04:05.316Z,100118.84
2023-04-15T04:04:37.718Z,100128.50
2023-04-15T04:05:12.634Z,100120.19
2023-04-15T04:05:45.037Z,100129.06
2023-04-15T04:06:17.330Z,100123.69
2023-04-15T04:06:52.097Z,100124.25
2023-04-15T04:07:24.784Z,100119.13
2023-04-15T04:07:57.192Z,100114.00
2023-04-15T04:08:32.086Z,100120.75
2023-04-15T04:09:04.477Z,100128.00
2023-04-15T04:09:38.326Z,100123.44
2023-04-15T04:10:13.794Z,100120.50
2023-04-15T04:10:46.195Z,100121.00
2023-04-15T04:11:18.450Z,100125.03
2023-04-15T04:11:53.231Z,100118.03
2023-04-15T04:12:25.568Z,100118.84
2023-04-15T04:13:00.323Z,100116.97
2023-04-15T04:13:35.139Z,100120.94
2023-04-15T04:14:07.427Z,100124.16
2023-04-15T04:14:39.608Z,100126.56
2023-04-15T04:15:12.673Z,100121.19
2023-04-15T04:15:47.630Z,100123.09
2023-04-15T04:16:19.954Z,100114.22
2023-04-15T04:16:52.835Z,100119.59
2023-04-15T04:17:27.673Z,100119.59
2023-04-15T04:17:59.991Z,100110.72
2023-04-15T04:18:32.305Z,100124.16
2023-04-15T04:19:07.450Z,100121.97
2023-04-15T04:19:39.878Z,100125.16
2023-04-15T04:20:12.569Z,100126.22
2023-04-15T04:20:47.476Z,100124.06
2023-04-15T04:21:21.236Z,100131.28
2023-04-15T04:21:53.431Z,100129.66
2023-04-15T04:22:26.432Z,100132.63
2023-04-15T04:23:01.250Z,100124.56
2023-04-15T04:23:33.607Z,100133.09
2023-04-15T04:24:06.040Z,100142.75
2023-04-15T04:24:41.005Z,100130.06
2023-04-15T04:25:13.396Z,100138.13
2023-04-15T04:25:45.577Z,100132.22
2023-04-15T04:26:20.356Z,100137.53
2023-04-15T04:26:52.611Z,100133.72
2023-04-15T04:27:27.374Z,100141.19
2023-04-15T04:28:02.267Z,100142.00
2023-04-15T04:28:35.439Z,100136.66
2023-04-15T04:29:10.229Z,100135.84
2023-04-15T04:29:42.728Z,100137.69
2023-04-15T04:30:14.921Z,100143.66
2023-04-15T04:30:49.916Z,100136.16
2023-04-15T04:31:22.210Z,100135.06
2023-04-15T04:31:54.464Z,100131.09
2023-04-15T04:32:26.779Z,100142.38
2023-04-15T04:33:01.655Z,100142.94
2023-04-15T04:33:34.032Z,100137.81
2023-04-15T04:34:06.343Z,100144.00
2023-04-15T04:34:41.710Z,100142.69
2023-04-15T04:35:13.956Z,100138.94
2023-04-15T04:35:46.527Z,100142.69
2023-04-15T04:36:21.567Z,100141.38
2023-04-15T04:36:53.776Z,100142.75
2023-04-15T04:37:26.104Z,100136.88
2023-04-15T04:38:00.878Z,100138.25
2023-04-15T04:38:33.375Z,100136.38
2023-04-15T04:39:05.597Z,100138.53
2023-04-15T04:39:40.408Z,100137.47
2023-04-15T04:40:14.022Z,100135.38
2023-04-15T04:40:46.201Z,100141.03
2023-04-15T04:41:21.072Z,100135.38
2023-04-15T04:41:53.311Z,100138.06
2023-04-15T04:42:25.640Z,100141.56
2023-04-15T04:43:00.487Z,100138.06
2023-04-15T04:43:35.349Z,100137.78
2023-04-15T04:44:07.850Z,100138.53
2023-04-15T04:44:42.873Z,100137.19
2023-04-15T04:45:15.302Z,100149.78
2023-04-15T04:45:47.579Z,100141.75
2023-04-15T04:46:22.457Z,100148.16
2023-04-15T04:46:55.004Z,100138.25
2023-04-15T04:47:27.362Z,100136.59
2023-04-15T04:47:59.932Z,100138.25
2023-04-15T04:48:34.734Z,100138.47
2023-04-15T04:49:07.206Z,100133.09
2023-04-15T04:49:39.574Z,100137.41
2023-04-15T04:50:14.516Z,100142.25
2023-04-15T04:50:47.323Z,100140.63
2023-04-15T04:51:19.635Z,100144.94
2023-04-15T04:51:54.967Z,100142.78
2023-04-15T04:52:27.210Z,100143.38
2023-04-15T04:52:59.466Z,100141.22
2023-04-15T04:53:34.366Z,100149.28
2023-04-15T04:54:06.729Z,100138.28
2023-04-15T04:54:38.998Z,100136.19
2023-04-15T04:55:13.787Z,100142.09
2023-04-15T04:55:46.051Z,100136.72
2023-04-15T04:56:18.205Z,100142.91
2023-04-15T04:56:53.037Z,100143.72
2023-04-15T04:57:25.316Z,100145.59
2023-04-15T04:58:00.162Z,100140.75
2023-04-15T04:58:35.058Z,100138.13
2023-04-15T04:59:07.930Z,100141.91
2023-04-15T04:59:43.009Z,100140.28
2023-04-15T05:00:15.573Z,100141.84
2023-04-15T05:00:50.375Z,100143.16
2023-04-15T05:01:22.640Z,100150.09
2023-04-15T05:01:54.945Z,100140.91
2023-04-15T05:02:29.992Z,100147.09
2023-04-15T05:03:02.523Z,100143.59
2023-04-15T05:03:34.900Z,100150.31
2023-04-15T05:04:10.321Z,100146.81
2023-04-15T05:04:42.609Z,100141.69
2023-04-15T05:05:15.228Z,100146.00
2023-04-15T05:05:50.125Z,100145.75
2023-04-15T05:06:22.363Z,100150.84
2023-04-15T05:06:54.547Z,100146.28
2023-04-15T05:07:29.319Z,100150.84
2023-04-15T05:08:01.626Z,100140.63
2023-04-15T05:08:33.823Z,100135.25
2023-04-15T05:09:08.616Z,100142.78
2023-04-15T05:09:41.122Z,100145.22
2023-04-15T05:10:14.941Z,100156.28
2023-04-15T05:10:49.709Z,100147.97
2023-04-15T05:11:21.905Z,100150.38
2023-04-15T05:11:54.819Z,100152.28
2023-04-15T05:12:29.727Z,100147.16
2023-04-15T05:13:02.077Z,100147.41
2023-04-15T05:13:38.911Z,100151.97
2023-04-15T05:14:13.670Z,100148.97
2023-04-15T05:14:46.949Z,100155.97
2023-04-15T05:15:19.412Z,100145.00
2023-04-15T05:15:54.194Z,100153.06
2023-04-15T05:16:26.400Z,100152.47
2023-04-15T05:16:58.606Z,100150.84
2023-04-15T05:17:35.541Z,100150.84
2023-04-15T05:18:07.931Z,100151.66
2023-04-15T05:18:40.229Z,100151.16
2023-04-15T05:19:14.988Z,100146.91
2023-04-15T05:19:47.154Z,100148.03
2023-04-15T05:20:19.366Z,100148.34
2023-04-15T05:20:54.262Z,100153.19
2023-04-15T05:21:27.702Z,100152.13
2023-04-15T05:22:00.459Z,100145.69
2023-04-15T05:22:35.275Z,100151.06
2023-04-15T05:23:08.046Z,100155.34
2023-04-15T05:23:41.153Z,100152.06
2023-04-15T05:24:15.926Z,100155.28
2023-04-15T05:24:48.159Z,100156.56
2023-04-15T05:25:20.405Z,100154.69
2023-04-15T05:25:52.560Z,100156.56
2023-04-15T05:26:27.703Z,100150.66
2023-04-15T05:27:01.573Z,100157.66
2023-04-15T05:27:33.832Z,100152.00
2023-04-15T05:28:09.087Z,100160.06
2023-04-15T05:28:44.158Z,100153.06
2023-04-15T05:29:16.469Z,100161.41
2023-04-15T05:29:51.826Z,100168.41
2023-04-15T05:30:24.026Z,100154.16
2023-04-15T05:30:56.453Z,100156.34
2023-04-15T05:31:31.574Z,100158.78
2023-04-15T05:32:03.921Z,100154.19
2023-04-15T05:32:36.418Z,100156.88
2023-04-15T05:33:11.983Z,100157.69
2023-04-15T05:33:44.523Z,100151.78
2023-04-15T05:34:17.664Z,100154.97
2023-04-15T05:34:52.561Z,100148.78
2023-04-15T05:35:24.717Z,100159.25
2023-04-15T05:35:56.910Z,100150.16
2023-04-15T05:36:32.290Z,100143.44
2023-04-15T05:37:04.469Z,100155.34
2023-04-15T05:37:36.843Z,100148.88
2023-04-15T05:38:11.598Z,100151.56
2023-04-15T05:38:43.774Z,100161.81
2023-04-15T05:39:16.387Z,100154.06
2023-04-15T05:39:51.246Z,100159.97
2023-04-15T05:40:23.681Z,100159.72
2023-04-15T05:40:56.139Z,100164.28
2023-04-15T05:41:30.920Z,100155.41
2023-04-15T05:42:03.689Z,100166.66
2023-04-15T05:42:36.019Z,100160.19
2023-04-15T05:43:10.984Z,100169.81
2023-04-15T05:43:45.955Z,100164.16
2023-04-15T05:44:18.155Z,100166.31
2023-04-15T05:44:52.915Z,100164.16
2023-04-15T05:45:25.078Z,100162.56
2023-04-15T05:46:00.043Z,100154.75
2023-04-15T05:46:32.491Z,100159.56
2023-04-15T05:47:05.159Z,100166.06
2023-04-15T05:47:40.264Z,100167.44
2023-04-15T05:48:12.894Z,100159.94
2023-04-15T05:48:45.179Z,100156.97
2023-04-15T05:49:19.940Z,100168.03
2023-04-15T05:49:52.229Z,100168.84
2023-04-15T05:50:24.427Z,100161.34
2023-04-15T05:50:59.262Z,100165.09
2023-04-15T05:51:31.620Z,100157.56
2023-04-15T05:52:03.987Z,100164.56
2023-04-15T05:52:38.858Z,100164.56
2023-04-15T05:53:11.885Z,100160.47
2023-04-15T05:53:44.150Z,100165.63
2023-04-15T05:54:20.307Z,100163.47
2023-04-15T05:54:52.627Z,100166.72
2023-04-15T05:55:24.784Z,100171.03
2023-04-15T05:55:59.674Z,100173.44
2023-04-15T05:56:31.999Z,100172.63
2023-04-15T05:57:07.619Z,100172.16
2023-04-15T05:57:39.831Z,100168.41
2023-04-15T05:58:12.759Z,100168.13
2023-04-15T05:58:51.869Z,100172.19
2023-04-15T05:59:25.478Z,100166.81
2023-04-15T05:59:58.076Z,100169.00
2023-04-15T06:00:33.115Z,100167.16
2023-04-15T06:01:05.824Z,100168.78
2023-04-15T06:01:38.577Z,100176.59
2023-04-15T06:02:13.611Z,100172.59
2023-04-15T06:02:46.132Z,100169.09
2023-04-15T06:03:18.570Z,100172.31
2023-04-15T06:03:53.675Z,100166.94
2023-04-15T06:04:26.077Z,100169.09
2023-04-15T06:04:58.622Z,100159.94
2023-04-15T06:05:33.570Z,100166.94
2023-04-15T06:06:05.823Z,100167.47
2023-04-15T06:06:41.257Z,100165.84
2023-04-15T06:07:13.514Z,100160.16
2023-04-15T06:07:48.745Z,100167.16
2023-04-15T06:08:21.715Z,100168.22
2023-04-15T06:08:55.939Z,100165.31
2023-04-15T06:09:31.827Z,100170.16
2023-04-15T06:10:04.346Z,100168.00
2023-04-15T06:10:37.134Z,100169.91
2023-04-15T06:11:11.935Z,100157.78
2023-04-15T06:11:44.087Z,100167.97
2023-04-15T06:12:17.248Z,100169.03
2023-04-15T06:12:52.425Z,100164.47
2023-04-15T06:13:24.660Z,100168.22
2023-04-15T06:13:59.496Z,100167.97
2023-04-15T06:14:34.397Z,100174.13
2023-04-15T06:15:10.132Z,100168.22
2023-04-15T06:15:42.465Z,100165.25
2023-04-15T06:16:17.643Z,100165.75
2023-04-15T06:16:49.907Z,100170.28
2023-04-15T06:17:22.324Z,100169.50
2023-04-15T06:17:57.165Z,100170.28
2023-04-15T06:18:29.459Z,100172.19
2023-04-15T06:19:01.769Z,100172.19
2023-04-15T06:19:36.939Z,100175.44
2023-04-15T06:20:10.670Z,100176.25
2023-04-15T06:20:43.076Z,100172.22
2023-04-15T06:21:18.197Z,100173.84
2023-04-15T06:21:50.583Z,100179.22
2023-04-15T06:22:23.237Z,100181.91
2023-04-15T06:22:58.024Z,100177.09
2023-04-15T06:23:30.575Z,100180.59
2023-04-15T06:24:03.561Z,100179.28
2023-04-15T06:24:38.565Z,100177.41
2023-04-15T06:25:11.168Z,100177.41